Rolla, MO (65401)

6:34 PM CST on February 07, 2016 (GMT -0600)
College Hills | | Change Station
CLOSE
Current Station
Personal Weather Station
Location: Rolla, MO
Elevation: 1122 ft
Nearby Weather Stations

Elev 1122 ft 37.96 °N, 91.74 °W | Updated 41 seconds ago

Overcast
Overcast
45.6 °F
Feels Like 46 °F
N
2.0
Wind Variable Wind from WSW
Gusts 4.0 mph

Today
High -- | Low -- °F
--% Chance of Precip.
Yesterday
High -- | Low -- °F
Precip. -- in
Pressure 29.95 in
Visibility 10.0 miles
Clouds Few 5000 ft
Scattered Clouds 7000 ft
Overcast 10000 ft
Windchill 46 °F
Dew Point 29 °F
Humidity 52%
Rainfall 0.00 in
Snow Depth Not available.
7:06 AM 5:36 PM
Waning Crescent, 0% visible
METAR KVIH 072353Z AUTO 28008KT 10SM FEW050 SCT070 OVC100 08/M03 A2994 RMK AO2 PK WND 29028/2257 RAB00E11 SLP141 P0000 60000 T00781033 10111 20072 50003 $
Pressure 29.95 in
Visibility 10.0 miles
Clouds Few 5000 ft
Scattered Clouds 7000 ft
Overcast 10000 ft
Windchill 46 °F
Dew Point 29 °F
Humidity 52%
Rainfall 0.00 in
Snow Depth Not available.
7:06 AM 5:36 PM
Waning Crescent, 0% visible
METAR KVIH 072353Z AUTO 28008KT 10SM FEW050 SCT070 OVC100 08/M03 A2994 RMK AO2 PK WND 29028/2257 RAB00E11 SLP141 P0000 60000 T00781033 10111 20072 50003 $

10-Day Weather Forecast

Almanac

Astronomy

Feb. 07, 2016 Rise Set
Actual Time
Civil Twilight
Nautical Twilight
Astronomical Twilight
Moon
Length of Visible Light
Length of Day
Tomorrow will be .
, % of the Moon is Illuminated

Today's Extremes

State Highs State Lows

Community

WunderPhotos

Upload Photos

1,891,340 photos uploaded!

WunderBlog® & News

Nearby

Air Quality

  Air Quality AQ Index Pollutant
Not available.

Snow Depth

Station Depth Elevation

Earthquake Activity

City Distance Mag. Time & Date
Minimum magnitude displayed is 2.5.

Coastal Water Temperatures

Place Temperature

Stations

Nearby Weather Stations

Station Location Temp. Windchill Dew Point Humidity Wind Precip. Elev Updated Type
                   

Watches & Warnings

There are currently no watches in effect.